sensor_id;sensor_type;location;lat;lon;timestamp;P1;durP1;ratioP1;P2;durP2;ratioP2
58468;SDS011;44257;44.804;10.220;2023-02-15T00:00:30;15.70;;;6.97;;
58468;SDS011;44257;44.804;10.220;2023-02-15T00:02:56;13.07;;;7.00;;
58468;SDS011;44257;44.804;10.220;2023-02-15T00:05:22;17.05;;;7.75;;
58468;SDS011;44257;44.804;10.220;2023-02-15T00:07:48;15.15;;;6.53;;
58468;SDS011;44257;44.804;10.220;2023-02-15T00:10:17;13.93;;;5.88;;
58468;SDS011;44257;44.804;10.220;2023-02-15T00:12:43;15.65;;;6.88;;
58468;SDS011;44257;44.804;10.220;2023-02-15T00:15:09;13.57;;;6.47;;
58468;SDS011;44257;44.804;10.220;2023-02-15T00:17:48;16.10;;;7.03;;
58468;SDS011;44257;44.804;10.220;2023-02-15T00:20:17;15.52;;;6.43;;
58468;SDS011;44257;44.804;10.220;2023-02-15T00:22:44;11.43;;;5.13;;
58468;SDS011;44257;44.804;10.220;2023-02-15T00:25:20;12.45;;;6.57;;
58468;SDS011;44257;44.804;10.220;2023-02-15T00:27:46;17.85;;;8.00;;
58468;SDS011;44257;44.804;10.220;2023-02-15T00:30:12;12.30;;;6.63;;
58468;SDS011;44257;44.804;10.220;2023-02-15T00:32:38;14.23;;;6.88;;
58468;SDS011;44257;44.804;10.220;2023-02-15T00:35:05;14.15;;;6.60;;
58468;SDS011;44257;44.804;10.220;2023-02-15T00:37:50;15.38;;;7.00;;
58468;SDS011;44257;44.804;10.220;2023-02-15T00:40:22;15.77;;;6.72;;
58468;SDS011;44257;44.804;10.220;2023-02-15T00:42:48;20.45;;;6.93;;
58468;SDS011;44257;44.804;10.220;2023-02-15T00:45:22;11.48;;;4.03;;
58468;SDS011;44257;44.804;10.220;2023-02-15T00:48:31;14.77;;;5.68;;
58468;SDS011;44257;44.804;10.220;2023-02-15T00:50:58;15.38;;;7.00;;
58468;SDS011;44257;44.804;10.220;2023-02-15T00:53:25;16.30;;;6.43;;
58468;SDS011;44257;44.804;10.220;2023-02-15T00:56:03;10.70;;;5.90;;
58468;SDS011;44257;44.804;10.220;2023-02-15T00:58:32;19.98;;;6.75;;
58468;SDS011;44257;44.804;10.220;2023-02-15T01:01:09;11.77;;;5.57;;
58468;SDS011;44257;44.804;10.220;2023-02-15T01:03:55;13.60;;;5.25;;
58468;SDS011;44257;44.804;10.220;2023-02-15T01:06:21;13.25;;;5.88;;
58468;SDS011;44257;44.804;10.220;2023-02-15T01:08:50;14.57;;;6.28;;
58468;SDS011;44257;44.804;10.220;2023-02-15T01:11:20;12.73;;;5.47;;
58468;SDS011;44257;44.804;10.220;2023-02-15T01:13:50;15.02;;;6.63;;
58468;SDS011;44257;44.804;10.220;2023-02-15T01:16:18;13.18;;;5.50;;
58468;SDS011;44257;44.804;10.220;2023-02-15T01:18:46;13.48;;;6.40;;
58468;SDS011;44257;44.804;10.220;2023-02-15T01:21:15;11.90;;;4.82;;
58468;SDS011;44257;44.804;10.220;2023-02-15T01:23:44;18.75;;;6.55;;
58468;SDS011;44257;44.804;10.220;2023-02-15T01:26:12;15.70;;;6.53;;
58468;SDS011;44257;44.804;10.220;2023-02-15T01:29:34;13.35;;;6.00;;
58468;SDS011;44257;44.804;10.220;2023-02-15T01:32:01;14.35;;;6.03;;
58468;SDS011;44257;44.804;10.220;2023-02-15T01:34:50;11.90;;;5.70;;
58468;SDS011;44257;44.804;10.220;2023-02-15T01:37:27;10.55;;;5.60;;
58468;SDS011;44257;44.804;10.220;2023-02-15T01:39:57;9.45;;;5.05;;
58468;SDS011;44257;44.804;10.220;2023-02-15T01:42:25;10.55;;;4.43;;
58468;SDS011;44257;44.804;10.220;2023-02-15T01:45:00;13.07;;;6.15;;
58468;SDS011;44257;44.804;10.220;2023-02-15T01:50:30;16.67;;;6.20;;
58468;SDS011;44257;44.804;10.220;2023-02-15T01:53:10;10.38;;;5.72;;
58468;SDS011;44257;44.804;10.220;2023-02-15T01:56:48;6.97;;;3.97;;
58468;SDS011;44257;44.804;10.220;2023-02-15T01:59:38;8.80;;;5.20;;
58468;SDS011;44257;44.804;10.220;2023-02-15T02:02:25;13.80;;;5.80;;
58468;SDS011;44257;44.804;10.220;2023-02-15T02:04:57;11.20;;;5.10;;
58468;SDS011;44257;44.804;10.220;2023-02-15T02:07:30;11.95;;;5.03;;
58468;SDS011;44257;44.804;10.220;2023-02-15T02:10:00;10.70;;;5.40;;
58468;SDS011;44257;44.804;10.220;2023-02-15T02:12:28;9.70;;;4.63;;
58468;SDS011;44257;44.804;10.220;2023-02-15T02:14:54;10.65;;;5.13;;
58468;SDS011;44257;44.804;10.220;2023-02-15T02:17:28;11.50;;;4.97;;
58468;SDS011;44257;44.804;10.220;2023-02-15T02:23:15;10.90;;;4.82;;
58468;SDS011;44257;44.804;10.220;2023-02-15T02:29:19;12.18;;;4.28;;
58468;SDS011;44257;44.804;10.220;2023-02-15T02:32:09;10.70;;;4.63;;
58468;SDS011;44257;44.804;10.220;2023-02-15T02:37:56;12.40;;;5.00;;
58468;SDS011;44257;44.804;10.220;2023-02-15T02:40:43;8.40;;;4.30;;
58468;SDS011;44257;44.804;10.220;2023-02-15T02:43:36;7.97;;;3.80;;
58468;SDS011;44257;44.804;10.220;2023-02-15T02:48:51;10.48;;;4.72;;
58468;SDS011;44257;44.804;10.220;2023-02-15T02:51:18;8.90;;;4.32;;
58468;SDS011;44257;44.804;10.220;2023-02-15T02:53:48;7.72;;;3.90;;
58468;SDS011;44257;44.804;10.220;2023-02-15T02:56:26;10.77;;;4.72;;
58468;SDS011;44257;44.804;10.220;2023-02-15T02:59:12;10.32;;;4.28;;
58468;SDS011;44257;44.804;10.220;2023-02-15T03:01:50;15.05;;;4.50;;
58468;SDS011;44257;44.804;10.220;2023-02-15T03:04:27;7.82;;;3.95;;
58468;SDS011;44257;44.804;10.220;2023-02-15T03:06:59;12.52;;;4.43;;
58468;SDS011;44257;44.804;10.220;2023-02-15T03:09:29;7.95;;;3.70;;
58468;SDS011;44257;44.804;10.220;2023-02-15T03:12:26;12.30;;;4.60;;
58468;SDS011;44257;44.804;10.220;2023-02-15T03:15:00;11.68;;;4.75;;
58468;SDS011;44257;44.804;10.220;2023-02-15T03:17:41;8.82;;;5.10;;
58468;SDS011;44257;44.804;10.220;2023-02-15T03:20:14;13.88;;;4.47;;
58468;SDS011;44257;44.804;10.220;2023-02-15T03:22:44;14.98;;;4.30;;
58468;SDS011;44257;44.804;10.220;2023-02-15T03:25:21;11.27;;;4.63;;
58468;SDS011;44257;44.804;10.220;2023-02-15T03:27:54;13.55;;;5.38;;
58468;SDS011;44257;44.804;10.220;2023-02-15T03:30:27;11.05;;;4.65;;
58468;SDS011;44257;44.804;10.220;2023-02-15T03:32:56;8.18;;;4.03;;
58468;SDS011;44257;44.804;10.220;2023-02-15T03:35:26;9.68;;;4.10;;
58468;SDS011;44257;44.804;10.220;2023-02-15T03:38:13;9.77;;;4.05;;
58468;SDS011;44257;44.804;10.220;2023-02-15T03:40:44;10.48;;;4.60;;
58468;SDS011;44257;44.804;10.220;2023-02-15T03:43:33;10.98;;;4.53;;
58468;SDS011;44257;44.804;10.220;2023-02-15T03:46:14;8.32;;;3.67;;
58468;SDS011;44257;44.804;10.220;2023-02-15T03:48:43;7.78;;;3.92;;
58468;SDS011;44257;44.804;10.220;2023-02-15T03:51:14;8.80;;;4.15;;
58468;SDS011;44257;44.804;10.220;2023-02-15T03:56:52;8.02;;;4.32;;
58468;SDS011;44257;44.804;10.220;2023-02-15T03:59:39;10.10;;;4.25;;
58468;SDS011;44257;44.804;10.220;2023-02-15T04:02:41;11.65;;;3.88;;
58468;SDS011;44257;44.804;10.220;2023-02-15T04:05:17;9.13;;;4.22;;
58468;SDS011;44257;44.804;10.220;2023-02-15T04:07:43;8.85;;;4.57;;
58468;SDS011;44257;44.804;10.220;2023-02-15T04:10:09;6.97;;;3.75;;
58468;SDS011;44257;44.804;10.220;2023-02-15T04:12:54;10.52;;;4.35;;
58468;SDS011;44257;44.804;10.220;2023-02-15T04:15:21;9.95;;;3.92;;
58468;SDS011;44257;44.804;10.220;2023-02-15T04:18:05;7.68;;;4.10;;
58468;SDS011;44257;44.804;10.220;2023-02-15T04:20:31;9.70;;;3.72;;
58468;SDS011;44257;44.804;10.220;2023-02-15T04:23:15;8.23;;;3.67;;
58468;SDS011;44257;44.804;10.220;2023-02-15T04:26:02;7.55;;;3.22;;
58468;SDS011;44257;44.804;10.220;2023-02-15T04:28:29;11.50;;;4.07;;
58468;SDS011;44257;44.804;10.220;2023-02-15T04:30:55;10.00;;;3.85;;
58468;SDS011;44257;44.804;10.220;2023-02-15T04:33:21;9.48;;;3.60;;
58468;SDS011;44257;44.804;10.220;2023-02-15T04:35:47;12.10;;;4.93;;
58468;SDS011;44257;44.804;10.220;2023-02-15T04:38:13;11.50;;;4.53;;
58468;SDS011;44257;44.804;10.220;2023-02-15T04:40:39;10.40;;;4.25;;
58468;SDS011;44257;44.804;10.220;2023-02-15T04:43:05;7.80;;;3.65;;
58468;SDS011;44257;44.804;10.220;2023-02-15T04:45:30;7.82;;;4.30;;
58468;SDS011;44257;44.804;10.220;2023-02-15T04:47:56;8.68;;;3.28;;
58468;SDS011;44257;44.804;10.220;2023-02-15T04:50:22;7.82;;;3.80;;
58468;SDS011;44257;44.804;10.220;2023-02-15T04:52:48;7.22;;;3.42;;
58468;SDS011;44257;44.804;10.220;2023-02-15T04:55:14;6.03;;;3.40;;
58468;SDS011;44257;44.804;10.220;2023-02-15T04:57:40;8.75;;;4.00;;
58468;SDS011;44257;44.804;10.220;2023-02-15T05:00:06;8.00;;;3.60;;
58468;SDS011;44257;44.804;10.220;2023-02-15T05:02:33;7.05;;;3.13;;
58468;SDS011;44257;44.804;10.220;2023-02-15T05:04:59;7.07;;;3.58;;
58468;SDS011;44257;44.804;10.220;2023-02-15T05:07:25;6.88;;;3.38;;
58468;SDS011;44257;44.804;10.220;2023-02-15T05:09:51;8.45;;;4.07;;
58468;SDS011;44257;44.804;10.220;2023-02-15T05:12:17;8.15;;;3.45;;
58468;SDS011;44257;44.804;10.220;2023-02-15T05:14:42;9.30;;;4.53;;
58468;SDS011;44257;44.804;10.220;2023-02-15T05:17:08;7.28;;;3.55;;
58468;SDS011;44257;44.804;10.220;2023-02-15T05:19:34;8.10;;;3.83;;
58468;SDS011;44257;44.804;10.220;2023-02-15T05:22:00;7.10;;;3.55;;
58468;SDS011;44257;44.804;10.220;2023-02-15T05:24:26;10.15;;;3.55;;
58468;SDS011;44257;44.804;10.220;2023-02-15T05:27:10;12.38;;;3.38;;
58468;SDS011;44257;44.804;10.220;2023-02-15T05:29:55;10.20;;;3.03;;
58468;SDS011;44257;44.804;10.220;2023-02-15T05:32:21;13.30;;;3.40;;
58468;SDS011;44257;44.804;10.220;2023-02-15T05:34:47;7.38;;;3.70;;
58468;SDS011;44257;44.804;10.220;2023-02-15T05:37:13;7.30;;;3.20;;
58468;SDS011;44257;44.804;10.220;2023-02-15T05:39:38;6.68;;;2.85;;
58468;SDS011;44257;44.804;10.220;2023-02-15T05:42:04;6.85;;;3.00;;
58468;SDS011;44257;44.804;10.220;2023-02-15T05:44:30;6.82;;;3.05;;
58468;SDS011;44257;44.804;10.220;2023-02-15T05:46:56;8.13;;;3.25;;
58468;SDS011;44257;44.804;10.220;2023-02-15T05:49:22;8.38;;;3.40;;
58468;SDS011;44257;44.804;10.220;2023-02-15T05:51:48;5.78;;;3.10;;
58468;SDS011;44257;44.804;10.220;2023-02-15T05:54:14;6.68;;;3.47;;
58468;SDS011;44257;44.804;10.220;2023-02-15T05:56:40;5.50;;;3.10;;
58468;SDS011;44257;44.804;10.220;2023-02-15T05:59:06;5.70;;;3.40;;
58468;SDS011;44257;44.804;10.220;2023-02-15T06:01:31;6.85;;;3.55;;
58468;SDS011;44257;44.804;10.220;2023-02-15T06:03:57;8.25;;;2.88;;
58468;SDS011;44257;44.804;10.220;2023-02-15T06:06:23;20.35;;;4.00;;
58468;SDS011;44257;44.804;10.220;2023-02-15T06:08:50;12.85;;;3.75;;
58468;SDS011;44257;44.804;10.220;2023-02-15T06:11:16;6.65;;;2.55;;
58468;SDS011;44257;44.804;10.220;2023-02-15T06:13:41;7.85;;;2.97;;
58468;SDS011;44257;44.804;10.220;2023-02-15T06:16:07;4.78;;;2.65;;
58468;SDS011;44257;44.804;10.220;2023-02-15T06:18:33;5.72;;;2.92;;
58468;SDS011;44257;44.804;10.220;2023-02-15T06:21:00;6.82;;;3.40;;
58468;SDS011;44257;44.804;10.220;2023-02-15T06:23:25;16.50;;;3.72;;
58468;SDS011;44257;44.804;10.220;2023-02-15T06:25:51;5.68;;;2.83;;
58468;SDS011;44257;44.804;10.220;2023-02-15T06:28:17;6.53;;;2.95;;
58468;SDS011;44257;44.804;10.220;2023-02-15T06:30:43;7.78;;;3.30;;
58468;SDS011;44257;44.804;10.220;2023-02-15T06:33:10;8.43;;;3.75;;
58468;SDS011;44257;44.804;10.220;2023-02-15T06:35:36;9.07;;;3.60;;
58468;SDS011;44257;44.804;10.220;2023-02-15T06:38:02;6.93;;;2.90;;
58468;SDS011;44257;44.804;10.220;2023-02-15T06:40:28;8.15;;;3.38;;
58468;SDS011;44257;44.804;10.220;2023-02-15T06:42:53;8.02;;;4.00;;
58468;SDS011;44257;44.804;10.220;2023-02-15T06:45:19;5.30;;;2.63;;
58468;SDS011;44257;44.804;10.220;2023-02-15T06:47:48;7.93;;;3.83;;
58468;SDS011;44257;44.804;10.220;2023-02-15T06:50:14;7.95;;;3.00;;
58468;SDS011;44257;44.804;10.220;2023-02-15T06:52:40;5.20;;;2.53;;
58468;SDS011;44257;44.804;10.220;2023-02-15T06:55:06;5.82;;;2.50;;
58468;SDS011;44257;44.804;10.220;2023-02-15T06:57:32;5.78;;;2.90;;
58468;SDS011;44257;44.804;10.220;2023-02-15T06:59:58;14.63;;;2.80;;
58468;SDS011;44257;44.804;10.220;2023-02-15T07:02:24;10.23;;;4.05;;
58468;SDS011;44257;44.804;10.220;2023-02-15T07:04:50;12.57;;;3.33;;
58468;SDS011;44257;44.804;10.220;2023-02-15T07:07:16;8.15;;;3.65;;
58468;SDS011;44257;44.804;10.220;2023-02-15T07:09:42;5.97;;;2.78;;
58468;SDS011;44257;44.804;10.220;2023-02-15T07:12:08;4.85;;;2.90;;
58468;SDS011;44257;44.804;10.220;2023-02-15T07:14:53;5.78;;;3.03;;
58468;SDS011;44257;44.804;10.220;2023-02-15T07:17:19;7.55;;;2.90;;
58468;SDS011;44257;44.804;10.220;2023-02-15T07:19:45;10.32;;;3.28;;
58468;SDS011;44257;44.804;10.220;2023-02-15T07:22:11;8.88;;;2.65;;
58468;SDS011;44257;44.804;10.220;2023-02-15T07:24:37;7.60;;;3.13;;
58468;SDS011;44257;44.804;10.220;2023-02-15T07:27:03;8.05;;;3.47;;
58468;SDS011;44257;44.804;10.220;2023-02-15T07:29:31;5.45;;;3.03;;
58468;SDS011;44257;44.804;10.220;2023-02-15T07:31:57;7.60;;;2.80;;
58468;SDS011;44257;44.804;10.220;2023-02-15T07:34:23;5.20;;;2.55;;
58468;SDS011;44257;44.804;10.220;2023-02-15T07:36:52;6.28;;;2.70;;
58468;SDS011;44257;44.804;10.220;2023-02-15T07:39:19;7.03;;;3.15;;
58468;SDS011;44257;44.804;10.220;2023-02-15T07:41:45;6.18;;;3.08;;
58468;SDS011;44257;44.804;10.220;2023-02-15T07:44:14;15.23;;;3.40;;
58468;SDS011;44257;44.804;10.220;2023-02-15T07:46:40;11.35;;;2.75;;
58468;SDS011;44257;44.804;10.220;2023-02-15T07:49:07;5.95;;;2.30;;
58468;SDS011;44257;44.804;10.220;2023-02-15T07:51:34;8.27;;;3.10;;
58468;SDS011;44257;44.804;10.220;2023-02-15T07:54:00;4.93;;;2.50;;
58468;SDS011;44257;44.804;10.220;2023-02-15T07:56:26;5.25;;;2.95;;
58468;SDS011;44257;44.804;10.220;2023-02-15T07:58:52;8.20;;;3.00;;
58468;SDS011;44257;44.804;10.220;2023-02-15T08:01:24;6.88;;;2.67;;
58468;SDS011;44257;44.804;10.220;2023-02-15T08:03:53;9.30;;;3.25;;
58468;SDS011;44257;44.804;10.220;2023-02-15T08:06:20;8.00;;;3.22;;
58468;SDS011;44257;44.804;10.220;2023-02-15T08:08:50;8.70;;;4.50;;
58468;SDS011;44257;44.804;10.220;2023-02-15T08:11:23;10.68;;;4.15;;
58468;SDS011;44257;44.804;10.220;2023-02-15T08:13:58;12.70;;;4.50;;
58468;SDS011;44257;44.804;10.220;2023-02-15T08:16:40;9.13;;;3.65;;
58468;SDS011;44257;44.804;10.220;2023-02-15T08:19:20;10.88;;;5.05;;
58468;SDS011;44257;44.804;10.220;2023-02-15T08:21:48;12.23;;;5.60;;
58468;SDS011;44257;44.804;10.220;2023-02-15T08:24:19;16.95;;;6.28;;
58468;SDS011;44257;44.804;10.220;2023-02-15T08:26:46;23.08;;;9.55;;
58468;SDS011;44257;44.804;10.220;2023-02-15T08:29:14;25.15;;;10.60;;
58468;SDS011;44257;44.804;10.220;2023-02-15T08:31:41;32.85;;;13.52;;
58468;SDS011;44257;44.804;10.220;2023-02-15T08:34:11;32.33;;;13.18;;
58468;SDS011;44257;44.804;10.220;2023-02-15T08:36:39;23.85;;;9.77;;
58468;SDS011;44257;44.804;10.220;2023-02-15T08:39:05;32.28;;;14.88;;
58468;SDS011;44257;44.804;10.220;2023-02-15T08:41:35;29.00;;;13.52;;
58468;SDS011;44257;44.804;10.220;2023-02-15T08:44:03;31.23;;;14.27;;
58468;SDS011;44257;44.804;10.220;2023-02-15T08:46:35;27.63;;;12.48;;
58468;SDS011;44257;44.804;10.220;2023-02-15T08:52:58;28.77;;;12.13;;
58468;SDS011;44257;44.804;10.220;2023-02-15T08:55:54;25.80;;;12.48;;
58468;SDS011;44257;44.804;10.220;2023-02-15T09:02:22;19.05;;;10.85;;
58468;SDS011;44257;44.804;10.220;2023-02-15T09:06:02;21.73;;;10.13;;
58468;SDS011;44257;44.804;10.220;2023-02-15T09:09:02;17.85;;;8.45;;
58468;SDS011;44257;44.804;10.220;2023-02-15T09:11:44;18.23;;;9.75;;
58468;SDS011;44257;44.804;10.220;2023-02-15T09:14:13;20.15;;;10.13;;
58468;SDS011;44257;44.804;10.220;2023-02-15T09:16:46;20.83;;;9.32;;
58468;SDS011;44257;44.804;10.220;2023-02-15T09:19:17;29.05;;;10.57;;
58468;SDS011;44257;44.804;10.220;2023-02-15T09:21:44;27.13;;;11.57;;
58468;SDS011;44257;44.804;10.220;2023-02-15T09:24:12;26.13;;;11.93;;
58468;SDS011;44257;44.804;10.220;2023-02-15T09:26:41;25.77;;;10.32;;
58468;SDS011;44257;44.804;10.220;2023-02-15T09:29:08;17.75;;;9.27;;
58468;SDS011;44257;44.804;10.220;2023-02-15T09:31:38;24.67;;;11.02;;
58468;SDS011;44257;44.804;10.220;2023-02-15T09:34:09;21.65;;;10.63;;
58468;SDS011;44257;44.804;10.220;2023-02-15T09:36:37;26.50;;;10.25;;
58468;SDS011;44257;44.804;10.220;2023-02-15T09:39:17;24.25;;;10.48;;
58468;SDS011;44257;44.804;10.220;2023-02-15T09:47:41;35.75;;;13.98;;
58468;SDS011;44257;44.804;10.220;2023-02-15T09:53:38;34.40;;;14.38;;
58468;SDS011;44257;44.804;10.220;2023-02-15T09:56:38;30.50;;;13.00;;
58468;SDS011;44257;44.804;10.220;2023-02-15T09:59:23;37.58;;;15.50;;
58468;SDS011;44257;44.804;10.220;2023-02-15T10:11:06;27.75;;;11.48;;
58468;SDS011;44257;44.804;10.220;2023-02-15T10:14:02;33.22;;;13.45;;
58468;SDS011;44257;44.804;10.220;2023-02-15T10:16:58;29.20;;;11.75;;
58468;SDS011;44257;44.804;10.220;2023-02-15T10:19:38;29.15;;;13.70;;
58468;SDS011;44257;44.804;10.220;2023-02-15T10:25:19;25.30;;;12.65;;
58468;SDS011;44257;44.804;10.220;2023-02-15T10:27:57;27.73;;;12.07;;
58468;SDS011;44257;44.804;10.220;2023-02-15T10:51:21;26.88;;;12.65;;
58468;SDS011;44257;44.804;10.220;2023-02-15T10:56:54;26.17;;;12.10;;
58468;SDS011;44257;44.804;10.220;2023-02-15T10:59:36;31.02;;;11.95;;
58468;SDS011;44257;44.804;10.220;2023-02-15T11:05:27;28.65;;;12.50;;
58468;SDS011;44257;44.804;10.220;2023-02-15T11:08:00;29.88;;;11.52;;
58468;SDS011;44257;44.804;10.220;2023-02-15T11:13:18;28.67;;;11.85;;
58468;SDS011;44257;44.804;10.220;2023-02-15T11:15:48;27.08;;;13.65;;
58468;SDS011;44257;44.804;10.220;2023-02-15T11:18:25;28.63;;;12.25;;
58468;SDS011;44257;44.804;10.220;2023-02-15T11:23:44;27.73;;;11.90;;
58468;SDS011;44257;44.804;10.220;2023-02-15T11:28:55;25.83;;;10.15;;
58468;SDS011;44257;44.804;10.220;2023-02-15T11:31:25;22.75;;;10.35;;
58468;SDS011;44257;44.804;10.220;2023-02-15T11:34:02;25.58;;;10.40;;
58468;SDS011;44257;44.804;10.220;2023-02-15T11:36:37;28.87;;;11.30;;
58468;SDS011;44257;44.804;10.220;2023-02-15T11:39:13;27.90;;;11.38;;
58468;SDS011;44257;44.804;10.220;2023-02-15T11:41:43;26.70;;;10.75;;
58468;SDS011;44257;44.804;10.220;2023-02-15T11:44:32;31.48;;;12.02;;
58468;SDS011;44257;44.804;10.220;2023-02-15T11:47:25;29.83;;;10.75;;
58468;SDS011;44257;44.804;10.220;2023-02-15T11:49:51;28.77;;;11.57;;
58468;SDS011;44257;44.804;10.220;2023-02-15T11:52:17;27.95;;;10.73;;
58468;SDS011;44257;44.804;10.220;2023-02-15T11:54:45;27.38;;;11.68;;
58468;SDS011;44257;44.804;10.220;2023-02-15T11:57:17;25.98;;;10.60;;
58468;SDS011;44257;44.804;10.220;2023-02-15T12:00:06;26.90;;;10.80;;
58468;SDS011;44257;44.804;10.220;2023-02-15T12:02:44;25.67;;;10.90;;
58468;SDS011;44257;44.804;10.220;2023-02-15T12:05:16;29.52;;;12.35;;
58468;SDS011;44257;44.804;10.220;2023-02-15T12:07:45;32.78;;;12.55;;
58468;SDS011;44257;44.804;10.220;2023-02-15T12:10:27;24.08;;;12.18;;
58468;SDS011;44257;44.804;10.220;2023-02-15T12:13:13;26.95;;;12.38;;
58468;SDS011;44257;44.804;10.220;2023-02-15T12:15:42;35.05;;;13.15;;
58468;SDS011;44257;44.804;10.220;2023-02-15T12:18:45;26.60;;;10.73;;
58468;SDS011;44257;44.804;10.220;2023-02-15T12:21:15;32.28;;;14.48;;
58468;SDS011;44257;44.804;10.220;2023-02-15T12:24:10;29.98;;;11.52;;
58468;SDS011;44257;44.804;10.220;2023-02-15T12:29:25;32.35;;;12.48;;
58468;SDS011;44257;44.804;10.220;2023-02-15T12:31:55;32.13;;;13.40;;
58468;SDS011;44257;44.804;10.220;2023-02-15T12:34:25;31.45;;;12.95;;
58468;SDS011;44257;44.804;10.220;2023-02-15T12:36:56;28.92;;;12.63;;
58468;SDS011;44257;44.804;10.220;2023-02-15T12:39:30;30.17;;;13.05;;
58468;SDS011;44257;44.804;10.220;2023-02-15T12:41:59;32.08;;;13.55;;
58468;SDS011;44257;44.804;10.220;2023-02-15T12:44:31;30.80;;;13.82;;
58468;SDS011;44257;44.804;10.220;2023-02-15T12:47:00;33.10;;;13.98;;
58468;SDS011;44257;44.804;10.220;2023-02-15T12:49:42;34.28;;;13.20;;
58468;SDS011;44257;44.804;10.220;2023-02-15T12:54:45;31.92;;;14.10;;
58468;SDS011;44257;44.804;10.220;2023-02-15T12:57:30;36.50;;;14.88;;
58468;SDS011;44257;44.804;10.220;2023-02-15T13:00:06;37.17;;;15.75;;
58468;SDS011;44257;44.804;10.220;2023-02-15T13:02:53;35.25;;;13.77;;
58468;SDS011;44257;44.804;10.220;2023-02-15T13:05:24;35.72;;;14.25;;
58468;SDS011;44257;44.804;10.220;2023-02-15T13:08:04;33.72;;;14.35;;
58468;SDS011;44257;44.804;10.220;2023-02-15T13:10:51;32.05;;;13.73;;
58468;SDS011;44257;44.804;10.220;2023-02-15T13:13:26;33.53;;;12.63;;
58468;SDS011;44257;44.804;10.220;2023-02-15T13:15:57;33.47;;;13.95;;
58468;SDS011;44257;44.804;10.220;2023-02-15T13:18:30;34.60;;;13.25;;
58468;SDS011;44257;44.804;10.220;2023-02-15T13:21:00;33.88;;;14.27;;
58468;SDS011;44257;44.804;10.220;2023-02-15T13:23:34;34.78;;;14.75;;
58468;SDS011;44257;44.804;10.220;2023-02-15T13:26:03;35.13;;;15.27;;
58468;SDS011;44257;44.804;10.220;2023-02-15T13:28:38;35.70;;;15.05;;
58468;SDS011;44257;44.804;10.220;2023-02-15T13:31:26;37.72;;;15.10;;
58468;SDS011;44257;44.804;10.220;2023-02-15T13:34:07;34.92;;;14.07;;
58468;SDS011;44257;44.804;10.220;2023-02-15T13:36:53;35.30;;;14.57;;
58468;SDS011;44257;44.804;10.220;2023-02-15T13:54:19;34.45;;;16.15;;
58468;SDS011;44257;44.804;10.220;2023-02-15T14:04:02;37.03;;;14.27;;
58468;SDS011;44257;44.804;10.220;2023-02-15T14:13:04;34.35;;;14.98;;
58468;SDS011;44257;44.804;10.220;2023-02-15T14:21:17;34.47;;;14.48;;
58468;SDS011;44257;44.804;10.220;2023-02-15T14:29:02;33.88;;;15.63;;
58468;SDS011;44257;44.804;10.220;2023-02-15T14:31:44;30.50;;;15.15;;
58468;SDS011;44257;44.804;10.220;2023-02-15T14:37:26;35.08;;;13.88;;
58468;SDS011;44257;44.804;10.220;2023-02-15T14:40:28;34.67;;;15.07;;
58468;SDS011;44257;44.804;10.220;2023-02-15T14:45:58;40.83;;;16.73;;
58468;SDS011;44257;44.804;10.220;2023-02-15T14:48:46;34.55;;;14.90;;
58468;SDS011;44257;44.804;10.220;2023-02-15T14:57:20;34.10;;;14.38;;
58468;SDS011;44257;44.804;10.220;2023-02-15T15:02:50;32.97;;;14.02;;
58468;SDS011;44257;44.804;10.220;2023-02-15T15:05:32;29.98;;;13.23;;
58468;SDS011;44257;44.804;10.220;2023-02-15T15:08:00;33.67;;;14.15;;
58468;SDS011;44257;44.804;10.220;2023-02-15T15:10:36;29.60;;;13.50;;
58468;SDS011;44257;44.804;10.220;2023-02-15T15:22:27;27.20;;;12.23;;
58468;SDS011;44257;44.804;10.220;2023-02-15T15:24:55;29.70;;;12.55;;
58468;SDS011;44257;44.804;10.220;2023-02-15T15:38:04;33.78;;;12.63;;
58468;SDS011;44257;44.804;10.220;2023-02-15T15:46:35;34.10;;;14.65;;
58468;SDS011;44257;44.804;10.220;2023-02-15T15:49:24;28.23;;;12.07;;
58468;SDS011;44257;44.804;10.220;2023-02-15T15:52:01;31.38;;;12.77;;
58468;SDS011;44257;44.804;10.220;2023-02-15T15:54:34;28.30;;;13.95;;
58468;SDS011;44257;44.804;10.220;2023-02-15T15:57:05;35.70;;;13.00;;
58468;SDS011;44257;44.804;10.220;2023-02-15T16:02:57;34.92;;;13.18;;
58468;SDS011;44257;44.804;10.220;2023-02-15T16:05:25;34.97;;;13.50;;
58468;SDS011;44257;44.804;10.220;2023-02-15T16:07:52;35.13;;;13.15;;
58468;SDS011;44257;44.804;10.220;2023-02-15T16:10:27;32.25;;;12.45;;
58468;SDS011;44257;44.804;10.220;2023-02-15T16:16:13;29.08;;;11.85;;
58468;SDS011;44257;44.804;10.220;2023-02-15T16:19:32;28.63;;;12.27;;
58468;SDS011;44257;44.804;10.220;2023-02-15T16:22:09;33.22;;;13.00;;
58468;SDS011;44257;44.804;10.220;2023-02-15T16:27:25;34.28;;;14.55;;
58468;SDS011;44257;44.804;10.220;2023-02-15T16:30:17;37.25;;;15.13;;
58468;SDS011;44257;44.804;10.220;2023-02-15T16:32:46;25.38;;;11.40;;
58468;SDS011;44257;44.804;10.220;2023-02-15T16:35:16;27.13;;;12.30;;
58468;SDS011;44257;44.804;10.220;2023-02-15T16:37:44;27.92;;;11.50;;
58468;SDS011;44257;44.804;10.220;2023-02-15T16:40:24;28.48;;;11.63;;
58468;SDS011;44257;44.804;10.220;2023-02-15T16:42:51;29.10;;;11.60;;
58468;SDS011;44257;44.804;10.220;2023-02-15T16:45:21;30.73;;;12.55;;
58468;SDS011;44257;44.804;10.220;2023-02-15T16:47:53;33.70;;;12.10;;
58468;SDS011;44257;44.804;10.220;2023-02-15T16:53:24;30.83;;;12.93;;
58468;SDS011;44257;44.804;10.220;2023-02-15T16:56:14;30.73;;;12.73;;
58468;SDS011;44257;44.804;10.220;2023-02-15T16:59:01;29.73;;;12.45;;
58468;SDS011;44257;44.804;10.220;2023-02-15T17:01:34;36.65;;;12.65;;
58468;SDS011;44257;44.804;10.220;2023-02-15T17:08:17;29.05;;;10.98;;
58468;SDS011;44257;44.804;10.220;2023-02-15T17:13:26;30.75;;;11.38;;
58468;SDS011;44257;44.804;10.220;2023-02-15T17:16:43;29.70;;;10.65;;
58468;SDS011;44257;44.804;10.220;2023-02-15T17:21:46;21.73;;;9.93;;
58468;SDS011;44257;44.804;10.220;2023-02-15T17:24:21;29.00;;;11.32;;
58468;SDS011;44257;44.804;10.220;2023-02-15T17:28:19;30.45;;;10.85;;
58468;SDS011;44257;44.804;10.220;2023-02-15T17:32:01;30.30;;;11.30;;
58468;SDS011;44257;44.804;10.220;2023-02-15T17:38:05;29.27;;;11.32;;
58468;SDS011;44257;44.804;10.220;2023-02-15T17:40:41;24.40;;;10.93;;
58468;SDS011;44257;44.804;10.220;2023-02-15T17:43:06;30.55;;;12.60;;
58468;SDS011;44257;44.804;10.220;2023-02-15T17:48:35;26.73;;;9.63;;
58468;SDS011;44257;44.804;10.220;2023-02-15T17:51:03;27.30;;;11.07;;
58468;SDS011;44257;44.804;10.220;2023-02-15T17:53:30;29.52;;;11.77;;
58468;SDS011;44257;44.804;10.220;2023-02-15T17:56:59;22.45;;;10.55;;
58468;SDS011;44257;44.804;10.220;2023-02-15T17:59:30;27.10;;;9.15;;
58468;SDS011;44257;44.804;10.220;2023-02-15T18:01:56;28.77;;;10.00;;
58468;SDS011;44257;44.804;10.220;2023-02-15T18:04:44;33.33;;;11.05;;
58468;SDS011;44257;44.804;10.220;2023-02-15T18:08:13;27.83;;;10.77;;
58468;SDS011;44257;44.804;10.220;2023-02-15T18:10:59;28.70;;;11.30;;
58468;SDS011;44257;44.804;10.220;2023-02-15T18:13:44;27.70;;;11.48;;
58468;SDS011;44257;44.804;10.220;2023-02-15T18:16:12;28.35;;;11.52;;
58468;SDS011;44257;44.804;10.220;2023-02-15T18:18:40;27.98;;;10.18;;